createdAt,value
2022-12-08T00:00:10.187Z,-0.06
2022-12-08T00:01:17.925Z,0.04
2022-12-08T00:02:20.911Z,0.04
2022-12-08T00:03:23.926Z,0.06
2022-12-08T00:04:26.862Z,0.04
2022-12-08T00:05:48.342Z,-0.07
2022-12-08T00:07:10.781Z,-0.03
2022-12-08T00:08:32.485Z,0.07
2022-12-08T00:09:39.802Z,0.12
2022-12-08T00:10:49.937Z,0.20
2022-12-08T00:11:56.509Z,0.28
2022-12-08T00:12:59.233Z,0.22
2022-12-08T00:14:02.121Z,0.30
2022-12-08T00:15:05.435Z,0.31
2022-12-08T00:16:08.813Z,0.27
2022-12-08T00:17:14.260Z,0.22
2022-12-08T00:18:17.291Z,0.13
2022-12-08T00:19:20.369Z,0.12
2022-12-08T00:20:23.027Z,0.17
2022-12-08T00:21:25.686Z,0.26
2022-12-08T00:22:29.379Z,0.23
2022-12-08T00:23:35.523Z,0.29
2022-12-08T00:24:40.049Z,0.26
2022-12-08T00:25:42.797Z,0.25
2022-12-08T00:26:45.688Z,0.26
2022-12-08T00:27:48.252Z,0.02
2022-12-08T00:28:51.448Z,-0.03
2022-12-08T00:29:54.230Z,0.06
2022-12-08T00:30:56.861Z,0.12
2022-12-08T00:31:59.670Z,0.04
2022-12-08T00:33:02.370Z,0.07
2022-12-08T00:34:05.331Z,0.11
2022-12-08T00:35:08.428Z,0.03
2022-12-08T00:36:14.045Z,0.19
2022-12-08T00:37:16.846Z,0.25
2022-12-08T00:38:19.805Z,0.27
2022-12-08T00:39:22.488Z,0.34
2022-12-08T00:40:25.179Z,0.24
2022-12-08T00:41:47.813Z,0.20
2022-12-08T00:42:50.523Z,0.14
2022-12-08T00:43:53.180Z,0.17
2022-12-08T00:44:56.127Z,0.21
2022-12-08T00:45:58.817Z,0.24
2022-12-08T00:47:01.490Z,0.27
2022-12-08T00:48:04.351Z,0.22
2022-12-08T00:49:07.716Z,0.27
2022-12-08T00:50:11.249Z,0.37
2022-12-08T00:51:14.048Z,0.48
2022-12-08T00:52:16.717Z,0.41
2022-12-08T00:53:19.288Z,0.40
2022-12-08T00:54:23.252Z,0.43
2022-12-08T00:55:26.044Z,0.41
2022-12-08T00:56:28.775Z,0.44
2022-12-08T00:57:32.484Z,0.49
2022-12-08T00:58:35.207Z,0.45
2022-12-08T00:59:37.942Z,0.45
2022-12-08T01:00:42.116Z,0.48
2022-12-08T01:01:46.324Z,0.55
2022-12-08T01:02:49.374Z,0.48
2022-12-08T01:03:52.700Z,0.39
2022-12-08T01:04:55.619Z,0.33
2022-12-08T01:06:03.620Z,0.34
2022-12-08T01:07:06.845Z,0.38
2022-12-08T01:08:09.615Z,0.40
2022-12-08T01:09:14.254Z,0.42
2022-12-08T01:10:17.327Z,0.47
2022-12-08T01:11:20.289Z,0.48
2022-12-08T01:12:23.082Z,0.45
2022-12-08T01:13:25.821Z,0.48
2022-12-08T01:14:28.565Z,0.53
2022-12-08T01:15:31.327Z,0.56
2022-12-08T01:16:36.331Z,0.65
2022-12-08T01:17:39.324Z,0.54
2022-12-08T01:18:42.194Z,0.51
2022-12-08T01:19:44.889Z,0.54
2022-12-08T01:20:47.731Z,0.54
2022-12-08T01:21:50.323Z,0.50
2022-12-08T01:22:53.093Z,0.52
2022-12-08T01:23:59.135Z,0.53
2022-12-08T01:25:02.729Z,0.39
2022-12-08T01:26:07.447Z,0.44
2022-12-08T01:27:10.157Z,0.46
2022-12-08T01:28:13.248Z,0.35
2022-12-08T01:29:16.134Z,0.40
2022-12-08T01:30:19.731Z,0.24
2022-12-08T01:31:23.340Z,0.21
2022-12-08T01:32:26.113Z,0.29
2022-12-08T01:33:30.128Z,0.24
2022-12-08T01:34:36.486Z,0.19
2022-12-08T01:35:40.598Z,0.26
2022-12-08T01:36:44.644Z,0.17
2022-12-08T01:37:47.311Z,0.08
2022-12-08T01:38:51.167Z,0.04
2022-12-08T01:39:53.830Z,-0.02
2022-12-08T01:40:56.474Z,-0.02
2022-12-08T01:42:02.460Z,0.06
2022-12-08T01:43:06.630Z,-0.09
2022-12-08T01:44:11.075Z,0.00
2022-12-08T01:45:27.036Z,0.15
2022-12-08T01:46:31.892Z,0.10
2022-12-08T01:47:43.111Z,0.05
2022-12-08T01:48:46.048Z,0.05
2022-12-08T01:49:48.957Z,0.04
2022-12-08T01:50:54.017Z,0.02
2022-12-08T01:52:14.958Z,-0.03
2022-12-08T01:53:23.921Z,-0.05
2022-12-08T01:54:31.944Z,-0.12
2022-12-08T01:55:49.615Z,-0.16
2022-12-08T01:57:04.752Z,-0.04
2022-12-08T01:58:15.992Z,-0.05
2022-12-08T01:59:19.449Z,-0.11
2022-12-08T02:00:23.236Z,-0.07
2022-12-08T02:01:26.122Z,-0.08
2022-12-08T02:02:39.755Z,-0.06
2022-12-08T02:04:01.134Z,-0.13
2022-12-08T02:05:04.324Z,-0.12
2022-12-08T02:06:07.564Z,-0.12
2022-12-08T02:07:12.664Z,-0.10
2022-12-08T02:08:15.606Z,-0.02
2022-12-08T02:09:19.846Z,-0.11
2022-12-08T02:10:24.889Z,-0.19
2022-12-08T02:11:27.928Z,-0.19
2022-12-08T02:12:30.849Z,-0.20
2022-12-08T02:13:33.503Z,-0.18
2022-12-08T02:14:36.178Z,-0.24
2022-12-08T02:15:38.899Z,-0.26
2022-12-08T02:16:52.908Z,-0.23
2022-12-08T02:18:31.225Z,-0.17
2022-12-08T02:19:58.685Z,0.09
2022-12-08T02:21:09.486Z,0.26
2022-12-08T02:22:14.603Z,0.10
2022-12-08T02:23:48.169Z,-0.01
2022-12-08T02:25:09.292Z,0.08
2022-12-08T02:26:27.005Z,0.07
2022-12-08T02:28:04.652Z,-0.07
2022-12-08T02:29:52.505Z,-0.10
2022-12-08T02:31:52.152Z,-0.06
2022-12-08T02:33:39.361Z,-0.05
2022-12-08T02:35:05.436Z,-0.04
2022-12-08T02:36:22.106Z,-0.06
2022-12-08T02:37:32.988Z,-0.14
2022-12-08T02:38:43.855Z,-0.02
2022-12-08T02:39:58.454Z,0.10
2022-12-08T02:41:29.506Z,0.02
2022-12-08T02:42:35.366Z,0.05
2022-12-08T02:44:04.287Z,-0.01
2022-12-08T02:45:14.888Z,-0.01
2022-12-08T02:46:25.169Z,0.03
2022-12-08T02:47:29.582Z,0.11
2022-12-08T02:48:34.328Z,0.12
2022-12-08T02:49:36.974Z,0.07
2022-12-08T02:50:39.960Z,0.10
2022-12-08T02:51:42.807Z,0.13
2022-12-08T02:52:47.253Z,0.24
2022-12-08T02:53:51.810Z,0.31
2022-12-08T02:54:59.662Z,0.32
2022-12-08T02:56:29.848Z,0.33
2022-12-08T02:57:49.558Z,0.44
2022-12-08T02:59:18.400Z,0.39
2022-12-08T03:00:23.123Z,0.49
2022-12-08T03:02:01.739Z,0.48
2022-12-08T03:03:50.328Z,0.61
2022-12-08T03:05:26.639Z,0.50
2022-12-08T03:06:51.734Z,0.37
2022-12-08T03:08:16.902Z,0.42
2022-12-08T03:09:35.953Z,0.39
2022-12-08T03:11:05.413Z,0.40
2022-12-08T03:12:16.998Z,0.48
2022-12-08T03:13:40.793Z,0.43
2022-12-08T03:14:52.950Z,0.43
2022-12-08T03:15:56.826Z,0.51
2022-12-08T03:17:01.005Z,0.48
2022-12-08T03:18:06.848Z,0.63
2022-12-08T03:19:14.694Z,0.66
2022-12-08T03:20:22.013Z,0.65
2022-12-08T03:21:25.947Z,0.57
2022-12-08T03:22:29.612Z,0.54
2022-12-08T03:23:36.467Z,0.53
2022-12-08T03:24:42.430Z,0.63
2022-12-08T03:26:12.265Z,0.62
2022-12-08T03:27:21.375Z,0.63
2022-12-08T03:28:24.964Z,0.62
2022-12-08T03:29:28.036Z,0.66
2022-12-08T03:30:36.998Z,0.73
2022-12-08T03:31:45.953Z,0.66
2022-12-08T03:32:57.847Z,0.65
2022-12-08T03:34:03.128Z,0.71
2022-12-08T03:35:11.353Z,0.84
2022-12-08T03:36:15.176Z,0.81
2022-12-08T03:37:18.634Z,0.80
2022-12-08T03:38:22.405Z,0.78
2022-12-08T03:39:25.505Z,0.80
2022-12-08T03:40:28.336Z,0.87
2022-12-08T03:41:31.374Z,0.87
2022-12-08T03:42:34.405Z,0.96
2022-12-08T03:43:37.234Z,0.89
2022-12-08T03:44:40.007Z,0.88
2022-12-08T03:45:43.238Z,0.88
2022-12-08T03:46:46.294Z,0.86
2022-12-08T03:47:49.261Z,0.95
2022-12-08T03:48:52.379Z,1.01
2022-12-08T03:49:55.344Z,0.99
2022-12-08T03:50:58.600Z,0.93
2022-12-08T03:52:01.412Z,0.87
2022-12-08T03:53:04.270Z,0.86
2022-12-08T03:54:07.143Z,0.85
2022-12-08T03:55:10.362Z,0.91
2022-12-08T03:56:28.658Z,0.90
2022-12-08T03:57:35.217Z,0.91
2022-12-08T03:58:38.433Z,0.89
2022-12-08T03:59:41.385Z,0.93
2022-12-08T04:00:44.139Z,0.96
2022-12-08T04:01:47.107Z,0.90
2022-12-08T04:02:50.053Z,0.83
2022-12-08T04:03:54.019Z,0.88
2022-12-08T04:04:56.832Z,0.97
2022-12-08T04:05:59.575Z,1.06
2022-12-08T04:07:02.590Z,1.00
2022-12-08T04:08:05.883Z,1.16
2022-12-08T04:09:12.628Z,1.04
2022-12-08T04:10:16.996Z,1.01
2022-12-08T04:11:20.695Z,1.09
2022-12-08T04:12:23.756Z,1.07
2022-12-08T04:13:26.623Z,1.05
2022-12-08T04:14:29.479Z,1.00
2022-12-08T04:15:32.453Z,1.12
2022-12-08T04:16:35.619Z,1.24
2022-12-08T04:17:38.637Z,1.19
2022-12-08T04:18:41.558Z,1.18
2022-12-08T04:19:44.720Z,1.24
2022-12-08T04:20:47.524Z,1.18
2022-12-08T04:21:50.444Z,1.25
2022-12-08T04:22:53.363Z,1.25
2022-12-08T04:24:01.000Z,1.23
2022-12-08T04:25:04.403Z,1.12
2022-12-08T04:26:07.419Z,1.11
2022-12-08T04:27:10.362Z,1.21
2022-12-08T04:28:13.665Z,1.23
2022-12-08T04:29:17.213Z,1.13
2022-12-08T04:30:20.130Z,1.08
2022-12-08T04:31:23.116Z,1.08
2022-12-08T04:32:26.003Z,0.99
2022-12-08T04:33:29.175Z,1.02
2022-12-08T04:34:32.030Z,1.07
2022-12-08T04:35:34.927Z,1.21
2022-12-08T04:36:37.944Z,1.29
2022-12-08T04:37:40.815Z,1.35
2022-12-08T04:38:44.012Z,1.33
2022-12-08T04:39:47.120Z,1.21
2022-12-08T04:40:50.043Z,1.26
2022-12-08T04:41:53.028Z,1.20
2022-12-08T04:42:55.896Z,1.25
2022-12-08T04:43:58.837Z,1.12
2022-12-08T04:45:01.894Z,1.10
2022-12-08T04:46:09.593Z,1.02
2022-12-08T04:47:12.537Z,1.19
2022-12-08T04:48:16.036Z,1.17
2022-12-08T04:49:19.002Z,1.05
2022-12-08T04:50:22.037Z,1.08
2022-12-08T04:51:24.871Z,1.10
2022-12-08T04:52:28.023Z,1.06
2022-12-08T04:53:31.124Z,1.05
2022-12-08T04:54:33.908Z,1.00
2022-12-08T04:55:40.674Z,1.01
2022-12-08T04:56:43.669Z,0.99
2022-12-08T04:57:46.655Z,1.07
2022-12-08T04:58:49.494Z,1.10
2022-12-08T04:59:52.599Z,1.11
2022-12-08T05:00:55.660Z,1.11
2022-12-08T05:01:58.636Z,1.14
2022-12-08T05:03:01.671Z,1.23
2022-12-08T05:04:04.663Z,1.28
2022-12-08T05:05:08.088Z,1.31
2022-12-08T05:06:13.803Z,1.26
2022-12-08T05:07:16.961Z,1.33
2022-12-08T05:08:20.227Z,1.26
2022-12-08T05:09:23.667Z,1.22
2022-12-08T05:10:26.806Z,1.04
2022-12-08T05:11:29.719Z,1.13
2022-12-08T05:12:32.740Z,1.21
2022-12-08T05:13:35.660Z,1.18
2022-12-08T05:14:38.894Z,1.34
2022-12-08T05:15:41.851Z,1.23
2022-12-08T05:16:46.223Z,1.21
2022-12-08T05:17:49.212Z,1.25
2022-12-08T05:18:52.058Z,1.28
2022-12-08T05:19:54.938Z,1.31
2022-12-08T05:20:57.952Z,1.40
2022-12-08T05:22:00.718Z,1.38
2022-12-08T05:23:03.854Z,1.41
2022-12-08T05:24:06.877Z,1.43
2022-12-08T05:25:09.868Z,1.48
2022-12-08T05:26:13.757Z,1.44
2022-12-08T05:27:16.623Z,1.38
2022-12-08T05:28:40.679Z,1.37
2022-12-08T05:29:43.073Z,1.33
2022-12-08T05:30:45.978Z,1.43
2022-12-08T05:31:49.124Z,1.40
2022-12-08T05:32:52.047Z,1.25
2022-12-08T05:33:58.382Z,1.32
2022-12-08T05:35:04.005Z,1.37
2022-12-08T05:36:07.774Z,1.42
2022-12-08T05:37:10.730Z,1.40
2022-12-08T05:38:14.007Z,1.50
2022-12-08T05:39:16.892Z,1.41
2022-12-08T05:40:19.931Z,1.40
2022-12-08T05:41:23.166Z,1.34
2022-12-08T05:42:26.045Z,1.52
2022-12-08T05:43:29.392Z,1.43
2022-12-08T05:44:32.288Z,1.42
2022-12-08T05:45:35.326Z,1.49
2022-12-08T05:46:38.610Z,1.41
2022-12-08T05:47:41.530Z,1.41
2022-12-08T05:48:44.376Z,1.44
2022-12-08T05:49:47.278Z,1.43
2022-12-08T05:50:50.839Z,1.52
2022-12-08T05:51:53.573Z,1.57
2022-12-08T05:52:56.352Z,1.52
2022-12-08T05:53:59.527Z,1.37
2022-12-08T05:55:02.593Z,1.30
2022-12-08T05:56:11.112Z,1.26
2022-12-08T05:57:15.282Z,1.41
2022-12-08T05:58:20.841Z,1.51
2022-12-08T05:59:23.819Z,1.35
2022-12-08T06:00:26.956Z,1.34
2022-12-08T06:01:31.991Z,1.36
2022-12-08T06:02:36.063Z,1.38
2022-12-08T06:03:39.054Z,1.27
2022-12-08T06:04:42.240Z,1.22
2022-12-08T06:05:46.968Z,1.19
2022-12-08T06:06:50.063Z,1.20
2022-12-08T06:07:53.059Z,1.16
2022-12-08T06:08:56.063Z,1.30
2022-12-08T06:09:59.047Z,1.30
2022-12-08T06:11:02.428Z,1.37
2022-12-08T06:12:05.359Z,1.30
2022-12-08T06:13:08.840Z,1.35
2022-12-08T06:14:12.720Z,1.34
2022-12-08T06:15:15.683Z,1.31
2022-12-08T06:16:19.393Z,1.29
2022-12-08T06:17:22.133Z,1.37
2022-12-08T06:18:29.660Z,1.35
2022-12-08T06:19:35.953Z,1.41
2022-12-08T06:20:38.868Z,1.35
2022-12-08T06:21:41.775Z,1.25
2022-12-08T06:22:44.753Z,1.25
2022-12-08T06:23:53.207Z,1.34
2022-12-08T06:24:56.249Z,1.31
2022-12-08T06:26:11.121Z,1.27
2022-12-08T06:27:13.997Z,1.28
2022-12-08T06:28:17.142Z,1.50
2022-12-08T06:29:20.096Z,1.47
2022-12-08T06:30:23.056Z,1.41
2022-12-08T06:31:27.083Z,1.41
2022-12-08T06:32:30.041Z,1.33
2022-12-08T06:33:33.196Z,1.30
2022-12-08T06:34:36.025Z,1.25
2022-12-08T06:35:39.092Z,1.25
2022-12-08T06:36:41.951Z,1.27
2022-12-08T06:37:48.686Z,1.23
2022-12-08T06:38:52.014Z,1.28
2022-12-08T06:39:54.955Z,1.30
2022-12-08T06:40:59.116Z,1.47
2022-12-08T06:42:20.375Z,1.53
2022-12-08T06:43:23.891Z,1.53
2022-12-08T06:44:26.920Z,1.61
2022-12-08T06:45:29.777Z,1.60
2022-12-08T06:46:32.841Z,1.53
2022-12-08T06:47:35.742Z,1.52
2022-12-08T06:48:38.994Z,1.43
2022-12-08T06:49:42.101Z,1.39
2022-12-08T06:50:45.602Z,1.57
2022-12-08T06:51:48.463Z,1.48
2022-12-08T06:53:01.051Z,1.59
2022-12-08T06:54:07.962Z,1.63
2022-12-08T06:55:16.907Z,1.53
2022-12-08T06:56:33.852Z,1.62
2022-12-08T06:57:37.044Z,1.58
2022-12-08T06:58:40.137Z,1.47
2022-12-08T06:59:43.049Z,1.49
2022-12-08T07:00:46.824Z,1.57
2022-12-08T07:01:49.780Z,1.39
2022-12-08T07:02:52.784Z,1.51
2022-12-08T07:03:55.806Z,1.42
2022-12-08T07:04:58.646Z,1.35
2022-12-08T07:06:04.146Z,1.40
2022-12-08T07:07:08.120Z,1.37
2022-12-08T07:08:11.291Z,1.43
2022-12-08T07:09:14.243Z,1.64
2022-12-08T07:10:18.726Z,1.57
2022-12-08T07:11:22.716Z,1.65
2022-12-08T07:12:25.645Z,1.53
2022-12-08T07:13:28.450Z,1.47
2022-12-08T07:14:31.293Z,1.47
2022-12-08T07:15:34.229Z,1.47
2022-12-08T07:16:37.352Z,1.51
2022-12-08T07:17:40.609Z,1.48
2022-12-08T07:18:44.276Z,1.58
2022-12-08T07:19:47.430Z,1.60
2022-12-08T07:20:50.311Z,1.43
2022-12-08T07:21:53.408Z,1.50
2022-12-08T07:22:56.269Z,1.53
2022-12-08T07:23:59.110Z,1.51
2022-12-08T07:25:02.120Z,1.50
2022-12-08T07:26:08.585Z,1.61
2022-12-08T07:27:11.604Z,1.60
2022-12-08T07:28:14.800Z,1.79
2022-12-08T07:29:21.722Z,1.94
2022-12-08T07:30:28.987Z,1.92
2022-12-08T07:31:32.077Z,1.95
2022-12-08T07:32:38.125Z,1.92
2022-12-08T07:33:41.141Z,1.99
2022-12-08T07:34:47.027Z,2.27
2022-12-08T07:36:02.655Z,2.24
2022-12-08T07:37:05.587Z,2.32
2022-12-08T07:38:11.332Z,2.33
2022-12-08T07:39:14.352Z,2.36
2022-12-08T07:40:17.303Z,2.38
2022-12-08T07:41:23.640Z,2.36
2022-12-08T07:42:28.723Z,2.48
2022-12-08T07:43:31.979Z,2.59
2022-12-08T07:44:34.818Z,2.52
2022-12-08T07:45:41.803Z,2.47
2022-12-08T07:46:44.820Z,2.56
2022-12-08T07:47:47.779Z,2.59
2022-12-08T07:48:52.702Z,2.56
2022-12-08T07:49:55.522Z,2.70
2022-12-08T07:51:03.143Z,2.72
2022-12-08T07:52:06.029Z,2.85
2022-12-08T07:53:09.634Z,2.84
2022-12-08T07:54:13.288Z,2.87
2022-12-08T07:55:16.667Z,2.95
2022-12-08T07:56:19.974Z,2.90
2022-12-08T07:57:22.720Z,3.03
2022-12-08T07:58:26.654Z,3.10
2022-12-08T07:59:29.961Z,3.08
2022-12-08T08:00:32.909Z,3.17
2022-12-08T08:01:36.357Z,3.31
2022-12-08T08:02:40.133Z,3.19
2022-12-08T08:03:43.559Z,3.26
2022-12-08T08:04:50.819Z,3.27
2022-12-08T08:05:53.587Z,3.32
2022-12-08T08:06:56.694Z,3.29
2022-12-08T08:07:59.655Z,3.26
2022-12-08T08:09:02.957Z,3.23
2022-12-08T08:10:07.334Z,3.34
2022-12-08T08:11:18.956Z,3.30
2022-12-08T08:12:31.172Z,3.18
2022-12-08T08:13:34.773Z,3.25
2022-12-08T08:14:37.552Z,3.11
2022-12-08T08:15:40.937Z,3.22
2022-12-08T08:16:47.073Z,3.21
2022-12-08T08:17:54.044Z,3.11
2022-12-08T08:18:57.141Z,3.11
2022-12-08T08:20:00.872Z,3.18
2022-12-08T08:21:22.141Z,3.25
2022-12-08T08:22:27.633Z,3.32
2022-12-08T08:23:30.673Z,3.41
2022-12-08T08:24:33.510Z,3.49
2022-12-08T08:25:36.576Z,3.56
2022-12-08T08:26:39.677Z,3.43
2022-12-08T08:27:42.905Z,3.58
2022-12-08T08:28:46.302Z,3.49
2022-12-08T08:29:49.487Z,3.48
2022-12-08T08:30:52.609Z,3.58
2022-12-08T08:31:55.613Z,3.47
2022-12-08T08:32:58.500Z,3.46
2022-12-08T08:34:06.664Z,3.33
2022-12-08T08:35:10.468Z,3.53
2022-12-08T08:36:13.334Z,3.59
2022-12-08T08:37:16.356Z,3.49
2022-12-08T08:38:19.383Z,3.51
2022-12-08T08:39:22.678Z,3.53
2022-12-08T08:40:25.896Z,3.56
2022-12-08T08:41:29.150Z,3.61
2022-12-08T08:42:32.141Z,3.57
2022-12-08T08:43:38.549Z,3.58
2022-12-08T08:44:41.894Z,3.49
2022-12-08T08:45:44.829Z,3.48
2022-12-08T08:46:48.052Z,3.59
2022-12-08T08:47:54.724Z,3.63
2022-12-08T08:48:58.356Z,3.68
2022-12-08T08:50:01.836Z,3.52
2022-12-08T08:51:10.851Z,3.46
2022-12-08T08:52:13.633Z,3.59
2022-12-08T08:53:16.928Z,3.64
2022-12-08T08:54:19.798Z,3.58
2022-12-08T08:55:22.696Z,3.64
2022-12-08T08:56:25.961Z,3.70
2022-12-08T08:57:32.727Z,3.80
2022-12-08T08:58:35.570Z,3.76
2022-12-08T08:59:38.471Z,3.86
2022-12-08T09:00:41.463Z,3.88
2022-12-08T09:01:44.534Z,3.48
2022-12-08T09:02:47.537Z,3.49
2022-12-08T09:03:50.706Z,3.34
2022-12-08T09:04:53.744Z,3.48
2022-12-08T09:05:56.895Z,3.48
2022-12-08T09:07:00.641Z,3.47
2022-12-08T09:08:03.589Z,3.54
2022-12-08T09:09:06.575Z,3.45
2022-12-08T09:10:09.984Z,3.47
2022-12-08T09:11:13.816Z,3.50
2022-12-08T09:12:16.832Z,3.40
2022-12-08T09:13:19.619Z,3.33
2022-12-08T09:14:23.417Z,3.40
2022-12-08T09:15:26.268Z,3.37
2022-12-08T09:16:29.188Z,3.53
2022-12-08T09:17:32.677Z,3.37
2022-12-08T09:18:35.856Z,3.39
2022-12-08T09:19:38.735Z,3.22
2022-12-08T09:20:41.697Z,3.35
2022-12-08T09:21:44.760Z,3.36
2022-12-08T09:22:47.985Z,3.27
2022-12-08T09:23:53.128Z,3.39
2022-12-08T09:24:56.173Z,3.42
2022-12-08T09:25:59.138Z,3.42
2022-12-08T09:27:02.042Z,3.41
2022-12-08T09:28:05.004Z,3.43
2022-12-08T09:29:08.281Z,3.52
2022-12-08T09:30:11.422Z,3.43
2022-12-08T09:31:15.106Z,3.30
2022-12-08T09:32:19.099Z,3.31
2022-12-08T09:33:21.941Z,3.35
2022-12-08T09:34:24.874Z,3.41
2022-12-08T09:35:27.760Z,3.49
2022-12-08T09:36:31.412Z,3.39
2022-12-08T09:37:35.319Z,3.25
2022-12-08T09:38:39.378Z,3.27
2022-12-08T09:39:42.337Z,3.34
2022-12-08T09:40:53.943Z,3.29
2022-12-08T09:42:05.054Z,3.37
2022-12-08T09:43:40.166Z,3.39
2022-12-08T09:45:02.873Z,3.21
2022-12-08T09:46:10.061Z,3.32
2022-12-08T09:47:24.430Z,3.39
2022-12-08T09:48:36.771Z,3.35
2022-12-08T09:50:10.996Z,3.43
2022-12-08T09:51:16.524Z,3.52
2022-12-08T09:52:25.741Z,3.58
2022-12-08T09:53:40.869Z,3.57
2022-12-08T09:54:43.784Z,3.61
2022-12-08T09:56:02.292Z,3.66
2022-12-08T09:57:15.275Z,3.63
2022-12-08T09:58:28.041Z,3.51
2022-12-08T09:59:33.859Z,3.42
2022-12-08T10:00:36.823Z,3.65
2022-12-08T10:01:43.792Z,3.63
2022-12-08T10:02:47.941Z,3.61
2022-12-08T10:03:50.952Z,3.65
2022-12-08T10:04:59.968Z,3.58
2022-12-08T10:06:15.095Z,3.62
2022-12-08T10:07:27.684Z,3.69
2022-12-08T10:09:00.481Z,3.69
2022-12-08T10:10:24.564Z,3.81
2022-12-08T10:11:39.879Z,3.64
2022-12-08T10:13:04.823Z,3.50
2022-12-08T10:14:16.300Z,3.70
2022-12-08T10:15:42.163Z,3.59
2022-12-08T10:16:50.160Z,3.77
2022-12-08T10:17:54.790Z,3.67
2022-12-08T10:19:22.611Z,3.76
2022-12-08T10:20:31.006Z,3.69
2022-12-08T10:21:33.990Z,3.60
2022-12-08T10:22:42.890Z,3.53
2022-12-08T10:23:55.758Z,3.66
2022-12-08T10:25:05.628Z,3.75
2022-12-08T10:26:18.383Z,3.76
2022-12-08T10:27:21.680Z,3.72
2022-12-08T10:28:24.643Z,3.84
2022-12-08T10:29:28.244Z,3.82
2022-12-08T10:30:32.347Z,3.87
2022-12-08T10:31:35.529Z,3.78
2022-12-08T10:32:39.777Z,3.83
2022-12-08T10:33:42.829Z,3.85
2022-12-08T10:35:04.191Z,3.86
2022-12-08T10:36:07.418Z,4.00
2022-12-08T10:37:10.854Z,3.87
2022-12-08T10:38:21.848Z,3.76
2022-12-08T10:39:37.572Z,3.85
2022-12-08T10:40:46.011Z,3.99
2022-12-08T10:41:51.646Z,4.03
2022-12-08T10:42:58.524Z,3.88
2022-12-08T10:44:02.263Z,3.86
2022-12-08T10:45:17.989Z,3.86
2022-12-08T10:46:26.092Z,3.85
2022-12-08T10:47:30.761Z,3.91
2022-12-08T10:48:34.044Z,3.90
2022-12-08T10:49:39.114Z,3.75
2022-12-08T10:50:53.248Z,3.75
2022-12-08T10:51:56.274Z,3.81
2022-12-08T10:53:15.029Z,3.98
2022-12-08T10:54:37.635Z,3.99
2022-12-08T10:55:44.589Z,3.93
2022-12-08T10:56:55.463Z,3.97
2022-12-08T10:57:58.196Z,3.81
2022-12-08T10:59:19.657Z,3.98
2022-12-08T11:00:26.970Z,3.90
2022-12-08T11:01:36.912Z,4.08
2022-12-08T11:03:14.235Z,4.24
2022-12-08T11:04:39.797Z,4.33
2022-12-08T11:05:42.669Z,4.08
2022-12-08T11:06:46.798Z,4.09
2022-12-08T11:07:54.077Z,4.16
2022-12-08T11:09:00.329Z,4.20
2022-12-08T11:10:03.827Z,4.02
2022-12-08T11:11:07.689Z,4.11
2022-12-08T11:12:17.982Z,4.03
2022-12-08T11:13:26.847Z,4.05
2022-12-08T11:14:32.798Z,4.10
2022-12-08T11:15:39.453Z,4.04
2022-12-08T11:16:43.386Z,4.17
2022-12-08T11:17:52.199Z,4.15
2022-12-08T11:18:59.425Z,4.12
2022-12-08T11:20:20.793Z,4.18
2022-12-08T11:21:35.594Z,4.05
2022-12-08T11:22:42.087Z,4.16
2022-12-08T11:23:50.468Z,4.04
2022-12-08T11:25:10.877Z,4.03
2022-12-08T11:26:22.616Z,3.95
2022-12-08T11:27:26.117Z,3.95
2022-12-08T11:28:29.460Z,4.11
2022-12-08T11:29:35.939Z,4.03
2022-12-08T11:30:44.332Z,3.94
2022-12-08T11:32:02.112Z,3.77
2022-12-08T11:33:21.721Z,3.64
2022-12-08T11:34:34.872Z,3.69
2022-12-08T11:35:41.237Z,3.64
2022-12-08T11:36:44.986Z,3.67
2022-12-08T11:37:47.814Z,3.71
2022-12-08T11:38:56.017Z,3.62
2022-12-08T11:40:05.100Z,3.75
2022-12-08T11:41:18.364Z,3.88
2022-12-08T11:42:26.115Z,3.78
2022-12-08T11:43:46.304Z,3.80
2022-12-08T11:45:01.823Z,3.77
2022-12-08T11:46:14.929Z,3.81
2022-12-08T11:47:40.270Z,4.04
2022-12-08T11:49:09.333Z,3.97
2022-12-08T11:50:29.401Z,3.95
2022-12-08T11:51:40.290Z,3.99
2022-12-08T11:52:48.537Z,4.02
2022-12-08T11:54:15.868Z,4.03
2022-12-08T11:55:37.068Z,3.99
2022-12-08T11:56:46.253Z,3.90
2022-12-08T11:57:49.268Z,3.88
2022-12-08T11:58:59.536Z,3.91
2022-12-08T12:00:04.051Z,4.00
2022-12-08T12:01:18.761Z,3.93
2022-12-08T12:02:30.037Z,4.05
2022-12-08T12:03:42.107Z,4.00
2022-12-08T12:04:45.501Z,3.99
2022-12-08T12:06:18.595Z,3.90
2022-12-08T12:07:33.142Z,3.75
2022-12-08T12:09:14.610Z,3.98
2022-12-08T12:10:26.854Z,3.94
2022-12-08T12:12:09.887Z,3.89
2022-12-08T12:13:48.197Z,3.90
2022-12-08T12:15:28.188Z,3.90
2022-12-08T12:16:51.642Z,3.84
2022-12-08T12:18:12.011Z,3.85
2022-12-08T12:19:22.006Z,3.87
2022-12-08T12:20:32.267Z,3.89
2022-12-08T12:21:38.457Z,3.87
2022-12-08T12:22:45.165Z,3.84
2022-12-08T12:23:57.136Z,3.78
2022-12-08T12:25:00.785Z,3.85
2022-12-08T12:26:07.488Z,3.80
2022-12-08T12:27:16.473Z,3.72
2022-12-08T12:28:20.904Z,3.60
2022-12-08T12:29:27.924Z,3.62
2022-12-08T12:31:01.581Z,3.69
2022-12-08T12:32:10.678Z,3.49
2022-12-08T12:33:15.871Z,3.52
2022-12-08T12:34:24.319Z,3.63
2022-12-08T12:35:41.694Z,3.56
2022-12-08T12:36:53.128Z,3.67
2022-12-08T12:38:01.064Z,3.59
2022-12-08T12:39:08.856Z,3.57
2022-12-08T12:40:20.613Z,3.58
2022-12-08T12:41:27.370Z,3.56
2022-12-08T12:42:45.824Z,3.53
2022-12-08T12:44:09.290Z,3.44
2022-12-08T12:45:23.932Z,3.40
2022-12-08T12:46:39.240Z,3.57
2022-12-08T12:47:56.557Z,3.57
2022-12-08T12:49:38.302Z,3.57
2022-12-08T12:50:52.077Z,3.55
2022-12-08T12:51:55.828Z,3.54
2022-12-08T12:53:20.168Z,3.55
2022-12-08T12:54:28.510Z,3.50
2022-12-08T12:55:46.655Z,3.61
2022-12-08T12:57:05.083Z,3.59
2022-12-08T12:58:22.989Z,3.62
2022-12-08T12:59:56.101Z,3.51
2022-12-08T13:01:14.156Z,3.42
2022-12-08T13:02:40.192Z,3.31
2022-12-08T13:03:52.456Z,3.40
2022-12-08T13:05:33.265Z,3.42
2022-12-08T13:06:42.473Z,3.39
2022-12-08T13:08:03.949Z,3.37
2022-12-08T13:09:07.768Z,3.32
2022-12-08T13:10:16.480Z,3.31
2022-12-08T13:11:20.116Z,3.33
2022-12-08T13:12:25.187Z,3.27
2022-12-08T13:13:29.335Z,3.19
2022-12-08T13:14:38.440Z,3.22
2022-12-08T13:15:55.137Z,3.14
2022-12-08T13:17:00.785Z,3.12
2022-12-08T13:18:04.468Z,3.15
2022-12-08T13:19:16.583Z,3.21
2022-12-08T13:20:23.539Z,3.33
2022-12-08T13:21:33.752Z,3.28
2022-12-08T13:23:24.529Z,3.17
2022-12-08T13:24:30.990Z,3.19
2022-12-08T13:25:40.017Z,3.14
2022-12-08T13:26:48.850Z,3.11
2022-12-08T13:27:55.554Z,3.10
2022-12-08T13:29:07.392Z,3.10
2022-12-08T13:30:41.473Z,3.02
2022-12-08T13:31:56.379Z,3.00
2022-12-08T13:33:18.517Z,3.02
2022-12-08T13:34:30.741Z,3.04
2022-12-08T13:35:33.861Z,3.23
2022-12-08T13:36:43.575Z,3.18
2022-12-08T13:37:54.978Z,3.10
2022-12-08T13:39:00.090Z,3.05
2022-12-08T13:40:15.318Z,3.07
2022-12-08T13:41:22.822Z,3.16
2022-12-08T13:42:48.691Z,3.12
2022-12-08T13:46:12.132Z,3.02
2022-12-08T13:47:24.729Z,2.94
2022-12-08T13:55:59.021Z,2.77
2022-12-08T13:57:37.101Z,2.84
2022-12-08T13:58:40.572Z,2.89
2022-12-08T13:59:45.490Z,2.88
2022-12-08T14:01:22.442Z,2.84
2022-12-08T14:02:33.444Z,2.81
2022-12-08T14:05:35.176Z,2.87
2022-12-08T14:06:49.121Z,2.90
2022-12-08T14:07:55.607Z,2.84
2022-12-08T14:09:09.943Z,2.70
2022-12-08T14:10:22.865Z,2.74
2022-12-08T14:11:35.602Z,2.86
2022-12-08T14:12:39.495Z,2.83
2022-12-08T14:13:42.567Z,2.81
2022-12-08T14:15:03.777Z,2.69
2022-12-08T14:16:15.996Z,2.63
2022-12-08T14:17:24.484Z,2.66
2022-12-08T14:18:31.149Z,2.59
2022-12-08T14:19:35.321Z,2.74
2022-12-08T14:21:12.199Z,2.79
2022-12-08T14:22:02.365Z,2.60
2022-12-08T14:23:07.658Z,2.55
2022-12-08T14:24:11.759Z,2.61
2022-12-08T14:25:16.350Z,2.49
2022-12-08T14:26:19.231Z,2.45
2022-12-08T14:27:25.962Z,2.47
2022-12-08T14:28:28.993Z,2.51
2022-12-08T14:29:42.291Z,2.47
2022-12-08T14:30:45.487Z,2.49
2022-12-08T14:31:48.678Z,2.48
2022-12-08T14:32:55.284Z,2.48
2022-12-08T14:33:58.236Z,2.45
2022-12-08T14:35:07.486Z,2.45
2022-12-08T14:36:14.864Z,2.54
2022-12-08T14:37:18.256Z,2.53
2022-12-08T14:38:28.951Z,2.44
2022-12-08T14:39:35.090Z,2.49
2022-12-08T14:40:59.303Z,2.50
2022-12-08T14:42:03.864Z,2.49
2022-12-08T14:43:21.147Z,2.61
2022-12-08T14:44:24.943Z,2.57
2022-12-08T14:45:27.807Z,2.57
2022-12-08T14:46:30.824Z,2.34
2022-12-08T14:47:38.912Z,2.40
2022-12-08T14:48:45.407Z,2.40
2022-12-08T14:49:48.427Z,2.50
2022-12-08T14:51:02.081Z,2.46
2022-12-08T14:52:11.682Z,2.42
2022-12-08T14:53:18.382Z,2.48
2022-12-08T14:54:21.256Z,2.45
2022-12-08T14:55:35.780Z,2.35
2022-12-08T14:56:52.037Z,2.25
2022-12-08T14:57:55.205Z,2.34
2022-12-08T14:59:15.090Z,2.39
2022-12-08T15:00:20.860Z,2.39
2022-12-08T15:01:24.025Z,2.37
2022-12-08T15:02:32.275Z,2.37
2022-12-08T15:03:35.236Z,2.39
2022-12-08T15:04:40.962Z,2.35
2022-12-08T15:05:45.351Z,2.35
2022-12-08T15:06:53.866Z,2.37
2022-12-08T15:08:04.166Z,2.21
2022-12-08T15:09:29.237Z,2.20
2022-12-08T15:10:35.765Z,2.36
2022-12-08T15:11:38.523Z,2.33
2022-12-08T15:12:41.766Z,2.17